Time;durP1;ratioP1;P1;durP2;ratioP2;P2;SDS_P1;SDS_P2;PMS_P1;PMS_P2;Temp;Humidity;BMP_temperature;BMP_pressure;BME280_temperature;BME280_humidity;BME280_pressure;Samples;Min_cycle;Max_cycle;Signal;HPM_P1;HPM_P2
2023/08/13 00:01:58;;;;;;;8.13;3.22;;;;;;;28.46;48.58;98885.81;5030621;28;20121;-46
2023/08/13 00:04:24;;;;;;;18.30;4.53;;;;;;;28.52;48.88;98883.78;5031943;28;20089;-46
2023/08/13 00:06:50;;;;;;;18.00;4.45;;;;;;;28.55;48.62;98879.66;5031788;28;20028;-46
2023/08/13 00:09:15;;;;;;;10.35;3.53;;;;;;;28.51;48.95;98879.47;5030556;28;20462;-46
2023/08/13 00:11:41;;;;;;;14.07;9.73;;;;;;;28.46;48.83;98885.81;5035427;28;20674;-46
2023/08/13 00:14:07;;;;;;;15.00;3.70;;;;;;;28.44;49.08;98879.13;5051728;28;20032;-46
2023/08/13 00:16:33;;;;;;;10.55;2.97;;;;;;;28.42;49.09;98879.44;5051631;28;20029;-46
2023/08/13 00:18:58;;;;;;;14.13;3.70;;;;;;;28.33;49.04;98885.91;5051650;28;20028;-46
2023/08/13 00:21:24;;;;;;;16.60;2.85;;;;;;;28.25;49.42;98885.59;5051565;28;20026;-46
2023/08/13 00:23:50;;;;;;;9.15;2.75;;;;;;;28.22;49.69;98883.50;5033689;28;20371;-46
2023/08/13 00:26:16;;;;;;;15.02;3.03;;;;;;;28.17;49.82;98880.97;5051533;28;20038;-46
2023/08/13 00:28:42;;;;;;;8.40;2.40;;;;;;;28.13;50.04;98884.59;5052519;28;20028;-46
2023/08/13 00:31:07;;;;;;;11.40;2.40;;;;;;;28.01;49.88;98880.59;5055573;28;20021;-46
2023/08/13 00:33:33;;;;;;;11.43;2.13;;;;;;;28.02;50.14;98886.78;5055669;28;20040;-45
2023/08/13 00:35:58;;;;;;;7.50;2.42;;;;;;;28.02;50.72;98884.84;5055552;28;20029;-46
2023/08/13 00:38:24;;;;;;;11.95;2.60;;;;;;;27.95;50.58;98892.63;5055586;28;20025;-46
2023/08/13 00:40:50;;;;;;;19.08;3.40;;;;;;;27.91;50.67;98880.84;5037762;28;20494;-46
2023/08/13 00:43:16;;;;;;;10.60;3.15;;;;;;;27.91;51.00;98880.84;5055472;28;20017;-46
2023/08/13 00:45:42;;;;;;;16.70;3.22;;;;;;;27.94;51.10;98879.44;5037602;28;20028;-46
2023/08/13 00:48:09;;;;;;;8.45;3.22;;;;;;;27.96;50.98;98886.09;5055194;28;20372;-45
2023/08/13 00:50:36;;;;;;;17.27;3.20;;;;;;;27.91;50.98;98878.16;5037392;28;20100;-46
2023/08/13 00:53:03;;;;;;;12.13;2.97;;;;;;;27.82;51.34;98888.06;5055275;28;20574;-46
2023/08/13 00:55:30;;;;;;;15.65;3.20;;;;;;;27.82;51.69;98880.75;5055207;28;20029;-45
2023/08/13 00:57:56;;;;;;;13.13;3.67;;;;;;;27.91;51.93;98880.84;5055135;28;20550;-46
2023/08/13 01:00:21;;;;;;;10.52;2.58;;;;;;;28.01;51.39;98879.75;5037233;28;20104;-46
2023/08/13 01:02:48;;;;;;;8.38;2.70;;;;;;;27.97;51.31;98882.31;5055355;28;20060;-46
2023/08/13 01:05:14;;;;;;;8.23;2.88;;;;;;;27.90;51.64;98879.25;5055083;28;20096;-45
2023/08/13 01:08:28;;;;;;;17.33;3.08;;;;;;;27.81;51.90;98881.88;5054933;28;20554;-46
2023/08/13 01:11:23;;;;;;;9.88;2.70;;;;;;;27.66;52.37;98879.56;5048186;28;20037;-46
2023/08/13 01:13:57;;;;;;;;;;;;;;;27.51;51.93;98883.47;5055403;28;20044;-46
2023/08/13 01:16:23;;;;;;;7.93;2.47;;;;;;;27.28;53.00;98878.06;5054943;28;19913;-46
2023/08/13 01:18:49;;;;;;;11.70;2.78;;;;;;;27.16;53.48;98883.16;5037033;28;20032;-46
2023/08/13 01:21:15;;;;;;;9.73;3.30;;;;;;;27.13;53.85;98877.63;5054768;28;20028;-46
2023/08/13 01:23:41;;;;;;;10.75;3.05;;;;;;;27.13;53.85;98873.00;5020384;28;20021;-46
2023/08/13 01:26:19;;;;;;;14.05;3.45;;;;;;;27.14;54.41;98879.19;5054927;28;20029;-46
2023/08/13 01:29:02;;;;;;;23.52;3.75;;;;;;;27.12;54.59;98876.00;5054703;28;20032;-45
2023/08/13 01:31:31;;;;;;;21.83;3.40;;;;;;;27.18;54.34;98874.78;5036896;28;20032;-46
2023/08/13 01:33:58;;;;;;;8.55;2.42;;;;;;;27.30;53.75;98875.84;5054490;28;20055;-46
2023/08/13 01:36:25;;;;;;;8.43;2.47;;;;;;;27.42;53.88;98882.59;5054737;28;20099;-45
2023/08/13 01:38:53;;;;;;;26.35;4.38;;;;;;;27.50;53.72;98865.69;5020192;28;20441;-46
2023/08/13 01:41:19;;;;;;;24.83;3.92;;;;;;;27.59;53.49;98871.16;5035094;28;20029;-45
2023/08/13 01:43:44;;;;;;;8.80;2.70;;;;;;;27.67;53.25;98870.41;5054352;28;20021;-46
2023/08/13 01:46:10;;;;;;;6.80;2.25;;;;;;;27.62;52.62;98871.28;5054209;28;20029;-46
2023/08/13 01:48:35;;;;;;;15.60;3.95;;;;;;;27.51;53.07;98861.91;5054289;28;20021;-46
2023/08/13 01:51:01;;;;;;;11.38;2.67;;;;;;;27.44;53.47;98858.81;5036337;28;20140;-46
2023/08/13 01:53:27;;;;;;;10.27;3.00;;;;;;;27.35;53.31;98863.38;5036225;28;20443;-46
2023/08/13 01:55:52;;;;;;;13.63;2.90;;;;;;;27.26;53.68;98868.69;5054083;28;20031;-46
2023/08/13 01:58:18;;;;;;;15.32;3.70;;;;;;;27.18;54.05;98864.78;5054102;28;20055;-46
2023/08/13 02:00:44;;;;;;;11.82;2.55;;;;;;;27.11;54.44;98859.06;5036244;28;20421;-46
2023/08/13 02:03:10;;;;;;;14.40;2.85;;;;;;;27.06;54.36;98854.59;5053944;28;20547;-46
2023/08/13 02:05:36;;;;;;;13.23;2.67;;;;;;;27.02;54.82;98852.78;5054155;28;20538;-46
2023/08/13 02:08:02;;;;;;;15.98;3.60;;;;;;;27.00;54.61;98855.00;5035885;28;20115;-46
2023/08/13 02:10:28;;;;;;;9.60;3.05;;;;;;;26.99;54.75;98856.91;5053747;28;20029;-46
2023/08/13 02:12:54;;;;;;;6.85;2.63;;;;;;;27.00;55.32;98855.00;5032376;28;20426;-46
2023/08/13 02:15:19;;;;;;;8.13;2.60;;;;;;;27.01;54.92;98853.91;5032527;28;20026;-46
2023/08/13 02:17:45;;;;;;;6.63;2.53;;;;;;;27.03;55.17;98849.78;5033848;28;20594;-46
2023/08/13 02:20:11;;;;;;;13.80;3.60;;;;;;;27.13;55.40;98850.66;5032427;28;20120;-45
2023/08/13 02:22:37;;;;;;;14.40;3.15;;;;;;;27.22;55.13;98849.59;5033698;28;20105;-46
2023/08/13 02:25:03;;;;;;;21.30;3.53;;;;;;;27.34;54.56;98848.28;5033630;28;20100;-46
2023/08/13 02:27:28;;;;;;;13.60;3.40;;;;;;;27.29;54.24;98850.00;5032297;28;20041;-46
2023/08/13 02:29:54;;;;;;;14.02;3.80;;;;;;;27.22;54.38;98844.22;5033846;28;20040;-46
2023/08/13 02:32:20;;;;;;;6.13;2.75;;;;;;;27.15;54.90;98843.06;5032239;28;20026;-46
2023/08/13 02:34:47;;;;;;;7.63;2.83;;;;;;;27.08;55.70;98841.59;5033480;28;20403;-46
2023/08/13 02:37:12;;;;;;;11.70;3.33;;;;;;;27.02;55.46;98840.09;5032119;28;20068;-46
2023/08/13 02:39:38;;;;;;;19.42;4.28;;;;;;;27.01;55.74;98837.75;5032118;28;20407;-46
2023/08/13 02:42:04;;;;;;;13.25;3.50;;;;;;;27.02;55.54;98834.72;5033368;28;20026;-46
2023/08/13 02:44:30;;;;;;;14.35;3.67;;;;;;;26.99;55.52;98832.66;5032011;28;20018;-46
2023/08/13 02:46:56;;;;;;;13.63;3.00;;;;;;;26.98;55.67;98835.66;5031873;28;20022;-46
2023/08/13 02:49:21;;;;;;;8.43;3.00;;;;;;;27.02;55.32;98837.41;5031888;28;20029;-46
2023/08/13 02:51:48;;;;;;;14.68;3.65;;;;;;;27.05;55.63;98836.03;5032705;28;20398;-46
2023/08/13 02:54:13;;;;;;;15.15;3.15;;;;;;;27.15;55.34;98840.38;5031822;28;20033;-46
2023/08/13 02:56:41;;;;;;;13.82;3.50;;;;;;;27.24;55.09;98842.03;5032995;28;20402;-46
2023/08/13 02:59:07;;;;;;;15.88;3.40;;;;;;;27.36;54.89;98843.41;5032991;28;20381;-46
2023/08/13 03:01:32;;;;;;;15.60;3.40;;;;;;;27.37;54.84;98839.63;5031630;28;20079;-46
2023/08/13 03:04:00;;;;;;;14.07;3.15;;;;;;;27.35;54.88;98837.22;5032962;28;20096;-46
2023/08/13 03:06:26;;;;;;;17.42;4.18;;;;;;;27.29;55.04;98841.94;5032707;28;20056;-46
2023/08/13 03:08:52;;;;;;;12.02;3.25;;;;;;;27.24;54.65;98833.97;5032711;28;20025;-46
2023/08/13 03:11:18;;;;;;;9.45;3.28;;;;;;;27.18;54.76;98827.06;5033092;28;20099;-47
2023/08/13 03:13:44;;;;;;;10.20;2.50;;;;;;;27.05;55.26;98833.34;5052630;28;20021;-45
2023/08/13 03:16:09;;;;;;;8.38;2.70;;;;;;;26.93;55.62;98833.09;5052458;28;20032;-46
2023/08/13 03:18:35;;;;;;;6.35;2.45;;;;;;;26.77;55.57;98830.72;5052559;28;20017;-46
2023/08/13 03:21:01;;;;;;;13.98;2.80;;;;;;;26.66;56.15;98835.56;5052476;28;20025;-46
2023/08/13 03:23:27;;;;;;;8.30;2.67;;;;;;;26.58;56.71;98840.84;5052426;28;20013;-46
2023/08/13 03:25:53;;;;;;;14.43;3.22;;;;;;;26.48;56.71;98848.03;5052322;28;20020;-46
2023/08/13 03:28:19;;;;;;;8.27;2.95;;;;;;;26.40;57.05;98840.66;5034358;28;20025;-46
2023/08/13 03:30:45;;;;;;;9.88;3.10;;;;;;;26.34;57.31;98846.44;5052285;28;20065;-46
2023/08/13 03:33:10;;;;;;;10.93;3.78;;;;;;;26.31;57.69;98843.25;5052261;28;20103;-46
2023/08/13 03:35:37;;;;;;;8.70;2.75;;;;;;;26.25;57.75;98843.66;5052408;28;20390;-46
2023/08/13 03:38:03;;;;;;;7.40;2.80;;;;;;;26.17;58.02;98844.34;5052173;28;20021;-46
2023/08/13 03:40:29;;;;;;;15.18;3.45;;;;;;;26.07;58.32;98837.28;5052203;28;20035;-46
2023/08/13 03:42:55;;;;;;;8.07;2.95;;;;;;;26.05;58.40;98845.63;5052122;28;20021;-47
2023/08/13 03:45:20;;;;;;;7.05;2.92;;;;;;;26.05;58.43;98839.47;5034231;28;20466;-46
2023/08/13 03:47:46;;;;;;;19.00;3.88;;;;;;;26.02;58.79;98846.25;5052000;28;20529;-46
2023/08/13 03:50:12;;;;;;;10.70;3.35;;;;;;;26.00;58.65;98843.06;5034127;28;20029;-46
2023/08/13 03:52:37;;;;;;;8.43;2.92;;;;;;;26.02;58.71;98840.88;5051956;28;20025;-46
2023/08/13 03:55:04;;;;;;;9.38;2.67;;;;;;;26.05;58.93;98851.00;5051952;28;20479;-46
2023/08/13 03:57:29;;;;;;;12.63;3.05;;;;;;;26.10;58.88;98852.84;5034002;28;20402;-46
2023/08/13 03:59:55;;;;;;;10.93;3.10;;;;;;;26.15;58.72;98852.72;5051833;28;20032;-46
2023/08/13 04:02:21;;;;;;;8.35;3.20;;;;;;;26.23;58.39;98853.91;5051871;28;20024;-48
2023/08/13 04:04:46;;;;;;;11.20;3.25;;;;;;;26.23;58.07;98860.09;5033112;28;20056;-46
2023/08/13 04:07:12;;;;;;;7.68;3.03;;;;;;;26.19;58.51;98866.38;5051746;28;20067;-46
2023/08/13 04:09:38;;;;;;;8.63;2.78;;;;;;;26.11;58.27;98863.28;5051825;28;20025;-45
2023/08/13 04:12:04;;;;;;;11.25;3.15;;;;;;;26.06;58.68;98868.75;5051370;28;20067;-46
2023/08/13 04:14:30;;;;;;;8.15;3.17;;;;;;;26.07;58.74;98870.34;5051730;28;20122;-46
2023/08/13 04:16:56;;;;;;;12.18;2.80;;;;;;;26.06;58.63;98874.16;5051853;28;20029;-46
2023/08/13 04:19:21;;;;;;;12.63;2.95;;;;;;;26.07;58.42;98874.94;5051557;28;20609;-46
2023/08/13 04:21:47;;;;;;;15.05;3.55;;;;;;;26.07;58.75;98873.03;5033705;28;20033;-46
2023/08/13 04:24:13;;;;;;;10.90;3.30;;;;;;;26.08;58.52;98877.34;5033677;28;20095;-46
2023/08/13 04:26:38;;;;;;;18.70;4.50;;;;;;;25.98;58.70;98874.00;5051459;28;20027;-46
2023/08/13 04:29:04;;;;;;;18.00;3.70;;;;;;;25.90;58.94;98878.22;5051577;28;20121;-46
2023/08/13 04:31:29;;;;;;;15.93;3.25;;;;;;;25.88;59.13;98877.69;5033588;28;20060;-45
2023/08/13 04:33:55;;;;;;;14.05;3.15;;;;;;;25.80;59.12;98875.69;5051515;28;20468;-46
2023/08/13 04:36:21;;;;;;;12.30;3.38;;;;;;;25.41;59.46;98880.34;5033595;28;20025;-45
2023/08/13 04:38:47;;;;;;;6.82;2.78;;;;;;;25.09;59.94;98879.19;5033648;28;20021;-46
2023/08/13 04:41:12;;;;;;;14.45;3.58;;;;;;;24.79;60.81;98875.06;5033504;28;20086;-46
2023/08/13 04:43:38;;;;;;;8.57;2.70;;;;;;;24.59;61.25;98878.81;5033514;28;20032;-46
2023/08/13 04:46:04;;;;;;;9.43;3.13;;;;;;;24.30;62.13;98886.91;5033480;28;20029;-46
2023/08/13 04:48:55;;;;;;;10.02;3.00;;;;;;;24.08;63.03;98882.03;5051572;28;20029;-46
2023/08/13 04:51:21;;;;;;;7.22;2.75;;;;;;;23.82;63.50;98890.31;5047531;28;20037;-46
2023/08/13 04:53:50;;;;;;;7.18;3.00;;;;;;;23.56;64.40;98888.94;5051353;28;20109;-45
2023/08/13 04:56:16;;;;;;;12.65;3.42;;;;;;;23.34;65.44;98887.47;5051303;28;20025;-46
2023/08/13 04:58:43;;;;;;;8.10;2.70;;;;;;;23.21;65.74;98893.50;5051224;28;20031;-46
2023/08/13 05:01:09;;;;;;;6.05;2.75;;;;;;;23.15;66.34;98897.28;5051477;28;20461;-45
2023/08/13 05:03:34;;;;;;;4.75;2.80;;;;;;;23.03;66.48;98892.25;5051250;28;20105;-46
2023/08/13 05:06:00;;;;;;;11.38;3.55;;;;;;;22.99;66.99;98897.31;5051224;28;20021;-46
2023/08/13 05:08:26;;;;;;;8.63;3.00;;;;;;;23.17;66.82;98895.91;5051341;28;20025;-46
2023/08/13 05:10:51;;;;;;;14.30;3.30;;;;;;;23.71;65.99;98889.59;5051174;28;20043;-45
2023/08/13 05:13:17;;;;;;;5.72;2.95;;;;;;;24.23;64.37;98894.50;5050932;28;20053;-46
2023/08/13 05:15:43;;;;;;;18.30;4.75;;;;;;;24.74;63.25;98893.13;5053742;28;20079;-45
2023/08/13 05:18:09;;;;;;;8.65;2.92;;;;;;;25.42;61.67;98889.22;5054871;28;20434;-45
2023/08/13 05:20:34;;;;;;;17.23;3.40;;;;;;;26.17;58.98;98895.47;5054930;28;20105;-45
2023/08/13 05:23:00;;;;;;;12.32;3.05;;;;;;;26.76;56.95;98888.38;5054772;28;20025;-46
2023/08/13 05:25:26;;;;;;;11.63;3.00;;;;;;;27.08;55.28;98886.59;5036788;28;20032;-46
2023/08/13 05:27:52;;;;;;;9.02;3.17;;;;;;;27.45;54.27;98882.00;5054590;28;20029;-46
2023/08/13 05:30:18;;;;;;;5.78;2.70;;;;;;;27.66;53.19;98895.75;5036688;28;20037;-46
2023/08/13 05:32:46;;;;;;;8.52;2.70;;;;;;;27.88;52.54;98890.34;5054641;28;20111;-46
2023/08/13 05:35:12;;;;;;;6.10;2.53;;;;;;;27.93;51.94;98894.84;5054797;28;20368;-46
2023/08/13 05:37:37;;;;;;;10.80;3.58;;;;;;;27.67;52.65;98889.28;5054520;28;20032;-45
2023/08/13 05:40:04;;;;;;;10.50;3.40;;;;;;;27.06;53.27;98886.91;5054498;28;20441;-46
2023/08/13 05:42:29;;;;;;;8.52;3.03;;;;;;;26.41;55.61;98888.00;5054326;28;20033;-46
2023/08/13 05:44:55;;;;;;;7.68;2.53;;;;;;;26.10;56.17;98891.28;5054391;28;20122;-46
2023/08/13 05:47:21;;;;;;;7.45;3.13;;;;;;;25.73;57.82;98888.69;5054218;28;20028;-46
2023/08/13 05:49:47;;;;;;;14.82;3.63;;;;;;;25.31;58.88;98892.06;5054243;28;20036;-46
2023/08/13 05:52:13;;;;;;;9.07;3.40;;;;;;;24.97;60.16;98892.28;5054171;28;20033;-46
2023/08/13 05:54:39;;;;;;;11.73;2.72;;;;;;;24.78;60.94;98892.25;5054231;28;20033;-46
2023/08/13 05:57:04;;;;;;;10.50;3.33;;;;;;;24.67;61.62;98898.81;5054082;28;20065;-46
2023/08/13 05:59:30;;;;;;;7.20;3.25;;;;;;;24.62;62.13;98896.22;5054083;28;20399;-46
2023/08/13 06:01:56;;;;;;;11.07;3.53;;;;;;;24.61;62.33;98894.59;5054069;28;20113;-46
2023/08/13 06:04:21;;;;;;;10.35;2.95;;;;;;;24.73;62.20;98886.97;5054032;28;20067;-46
2023/08/13 06:06:48;;;;;;;13.07;3.10;;;;;;;24.87;61.97;98897.75;5053795;28;20033;-46
2023/08/13 06:09:14;;;;;;;13.85;3.38;;;;;;;25.09;61.50;98897.19;5053931;28;20495;-46
2023/08/13 06:11:40;;;;;;;10.50;3.75;;;;;;;25.29;61.39;98901.47;5053742;28;20052;-46
2023/08/13 06:14:05;;;;;;;6.28;2.70;;;;;;;25.75;59.99;98899.94;5053776;28;20119;-47
2023/08/13 06:16:31;;;;;;;6.78;2.70;;;;;;;26.31;58.42;98907.03;5035855;28;20067;-46
2023/08/13 06:18:57;;;;;;;13.50;3.97;;;;;;;26.62;57.84;98895.66;5035865;28;20025;-46
2023/08/13 06:21:22;;;;;;;9.00;2.80;;;;;;;26.79;56.97;98895.06;5053737;28;20021;-46
2023/08/13 06:23:48;;;;;;;11.93;3.35;;;;;;;27.47;55.39;98893.28;5035724;28;20075;-46
2023/08/13 06:26:14;;;;;;;12.98;3.20;;;;;;;28.83;52.29;98886.38;5052729;28;20056;-46
2023/08/13 06:28:40;;;;;;;9.45;3.17;;;;;;;29.46;50.19;98888.78;5053476;28;20028;-46
2023/08/13 06:31:06;;;;;;;8.85;2.90;;;;;;;29.85;48.79;98892.38;5053785;28;20453;-46
2023/08/13 06:33:31;;;;;;;8.82;2.72;;;;;;;30.93;45.80;98889.31;5053440;28;20047;-46
2023/08/13 06:35:57;;;;;;;10.63;3.58;;;;;;;31.24;44.74;98893.50;5035527;28;20030;-47
2023/08/13 06:38:25;;;;;;;14.93;3.45;;;;;;;30.36;46.10;98890.56;5035633;28;20063;-46
2023/08/13 06:40:51;;;;;;;11.60;3.53;;;;;;;29.98;47.65;98904.91;5053338;28;20017;-47
2023/08/13 06:43:17;;;;;;;7.68;3.10;;;;;;;30.19;47.26;98904.19;5035494;28;20029;-46
2023/08/13 06:45:42;;;;;;;6.68;2.80;;;;;;;30.45;46.08;98899.47;5053459;28;20028;-46
2023/08/13 06:48:08;;;;;;;5.63;2.50;;;;;;;30.57;45.73;98903.38;5053041;28;20475;-46
2023/08/13 06:50:34;;;;;;;12.95;3.42;;;;;;;31.02;44.65;98897.34;5053106;28;20398;-47
2023/08/13 06:53:00;;;;;;;10.50;3.55;;;;;;;32.08;43.00;98893.31;5053065;28;20028;-46
2023/08/13 06:55:26;;;;;;;11.45;3.13;;;;;;;33.27;40.49;98902.34;5053008;28;20045;-47
2023/08/13 06:57:51;;;;;;;9.90;2.90;;;;;;;34.16;38.70;98899.22;5053008;28;20502;-46
2023/08/13 07:00:19;;;;;;;8.02;2.30;;;;;;;35.09;37.13;98903.22;5052929;28;20170;-47
2023/08/13 07:02:46;;;;;;;10.20;2.63;;;;;;;36.12;34.88;98895.38;5052799;28;20564;-47
2023/08/13 07:05:12;;;;;;;4.57;2.33;;;;;;;36.25;34.64;98892.47;5035252;28;20036;-47
2023/08/13 07:07:38;;;;;;;8.13;2.53;;;;;;;35.90;35.00;98886.06;5052668;28;20029;-46
2023/08/13 07:10:05;;;;;;;6.85;2.45;;;;;;;35.95;34.67;98885.75;5034811;28;20024;-47
2023/08/13 07:12:30;;;;;;;4.18;2.17;;;;;;;36.45;34.17;98887.69;5034492;28;20114;-46
2023/08/13 07:14:56;;;;;;;6.00;2.33;;;;;;;36.49;33.82;98886.59;5052617;28;20071;-47
2023/08/13 07:17:22;;;;;;;8.40;2.38;;;;;;;35.90;33.73;98886.06;5034618;28;20064;-47
2023/08/13 07:19:49;;;;;;;9.88;2.45;;;;;;;35.39;34.83;98884.34;5034637;28;20024;-46
2023/08/13 07:22:16;;;;;;;8.13;2.65;;;;;;;36.05;34.13;98889.03;5034596;28;20039;-47
2023/08/13 07:24:41;;;;;;;9.20;2.30;;;;;;;36.94;33.23;98886.78;5052389;28;20021;-47
2023/08/13 07:27:08;;;;;;;10.55;2.67;;;;;;;38.02;31.42;98885.97;5052369;28;20052;-47
2023/08/13 07:29:34;;;;;;;6.85;2.78;;;;;;;39.11;29.23;98893.69;5052304;28;20033;-47
2023/08/13 07:31:59;;;;;;;12.40;3.50;;;;;;;39.20;29.17;98890.56;5034661;28;20033;-47
2023/08/13 07:34:25;;;;;;;12.15;2.60;;;;;;;38.69;30.00;98890.34;5052219;28;20021;-47
2023/08/13 07:36:52;;;;;;;8.98;3.85;;;;;;;39.20;29.34;98882.31;5034269;28;20033;-47
2023/08/13 07:39:22;;;;;;;6.35;2.35;;;;;;;39.51;28.84;98883.59;5052095;28;20017;-49
2023/08/13 07:41:49;;;;;;;20.70;3.78;;;;;;;39.22;29.17;98875.28;5052115;28;20021;-49
2023/08/13 07:44:16;;;;;;;4.38;2.38;;;;;;;38.41;29.68;98876.44;5052160;28;20393;-49
2023/08/13 07:46:41;;;;;;;11.65;2.65;;;;;;;38.48;29.94;98871.03;5051990;28;20029;-49
2023/08/13 07:49:07;;;;;;;9.85;3.47;;;;;;;38.29;29.68;98875.59;5034185;28;20029;-49
2023/08/13 07:51:34;;;;;;;12.18;3.05;;;;;;;38.05;30.58;98876.19;5051969;28;20532;-46
2023/08/13 07:53:59;;;;;;;7.32;2.00;;;;;;;39.20;29.12;98874.88;5051908;28;20021;-46
2023/08/13 07:56:25;;;;;;;4.78;2.42;;;;;;;40.31;27.58;98863.97;5034011;28;20024;-49
2023/08/13 07:58:51;;;;;;;9.68;3.05;;;;;;;40.48;27.14;98859.59;5051935;28;20021;-49
2023/08/13 08:01:17;;;;;;;7.55;2.80;;;;;;;41.61;26.41;98855.91;5052025;28;20021;-49
2023/08/13 08:03:44;;;;;;;5.82;2.38;;;;;;;42.91;24.37;98849.88;5052074;28;20028;-49
2023/08/13 08:06:12;;;;;;;9.25;2.25;;;;;;;43.00;23.75;98854.88;5051738;28;20058;-49
2023/08/13 08:08:38;;;;;;;6.22;2.42;;;;;;;41.28;25.34;98858.09;5034199;28;20500;-49
2023/08/13 08:11:04;;;;;;;8.57;2.70;;;;;;;39.61;27.55;98860.84;5033839;28;20027;-49
2023/08/13 08:13:32;;;;;;;7.80;2.88;;;;;;;38.15;30.02;98856.31;5010686;28;20063;-49
2023/08/13 08:15:58;;;;;;;10.93;2.63;;;;;;;37.34;30.55;98857.94;5012094;28;20026;-49
2023/08/13 08:18:24;;;;;;;7.38;3.03;;;;;;;38.33;30.23;98854.47;5012372;28;20033;-49
2023/08/13 08:20:51;;;;;;;5.13;2.38;;;;;;;40.49;27.59;98850.19;5010748;28;20046;-49
2023/08/13 08:23:16;;;;;;;5.05;2.58;;;;;;;41.28;26.07;98849.06;5012029;28;20412;-49
2023/08/13 08:25:44;;;;;;;7.88;2.45;;;;;;;40.19;27.22;98855.34;5011982;28;20559;-49
2023/08/13 08:28:09;;;;;;;7.45;3.45;;;;;;;39.34;28.38;98852.94;5011850;28;20026;-49
2023/08/13 08:30:35;;;;;;;8.02;2.20;;;;;;;38.67;28.89;98848.78;5011900;28;20037;-49
2023/08/13 08:33:01;;;;;;;5.60;2.10;;;;;;;38.75;29.18;98850.38;5011946;28;20014;-49
2023/08/13 08:35:26;;;;;;;6.05;3.00;;;;;;;38.34;30.10;98844.31;5011785;28;20030;-49
2023/08/13 08:37:52;;;;;;;46.53;23.45;;;;;;;38.02;30.27;98839.38;5011905;28;20049;-49
2023/08/13 08:40:18;;;;;;;9.50;3.42;;;;;;;37.54;30.74;98848.34;5010524;28;20069;-49
2023/08/13 08:42:45;;;;;;;10.00;3.80;;;;;;;37.13;31.72;98842.88;5011787;28;20029;-49
2023/08/13 08:45:12;;;;;;;8.98;3.20;;;;;;;37.16;31.84;98839.38;5011741;28;20416;-49
2023/08/13 08:47:42;;;;;;;10.93;3.50;;;;;;;37.46;31.33;98824.03;5011732;28;20476;-49
2023/08/13 08:50:11;;;;;;;7.85;2.83;;;;;;;38.51;29.93;98831.84;4996134;28;20407;-48
2023/08/13 08:52:38;;;;;;;13.45;4.18;;;;;;;40.32;27.77;98829.78;5015670;28;20018;-49
2023/08/13 08:55:04;;;;;;;10.75;2.97;;;;;;;42.20;24.98;98818.34;5015633;28;20080;-49
2023/08/13 08:57:30;;;;;;;9.05;3.20;;;;;;;41.90;25.69;98817.84;5015432;28;20063;-49
2023/08/13 08:59:56;;;;;;;4.38;2.33;;;;;;;41.66;25.38;98818.88;5015522;28;20054;-49
2023/08/13 09:02:22;;;;;;;9.48;3.05;;;;;;;41.44;25.90;98821.00;5015672;28;20030;-50
2023/08/13 09:04:47;;;;;;;13.77;2.97;;;;;;;41.86;25.47;98817.13;5015411;28;20180;-49
2023/08/13 09:07:13;;;;;;;12.05;2.67;;;;;;;42.28;24.50;98815.13;5015328;28;20080;-49
2023/08/13 09:09:43;;;;;;;6.20;2.65;;;;;;;41.13;26.18;98813.31;5030562;28;20060;-49
2023/08/13 09:12:09;;;;;;;9.85;3.10;;;;;;;40.76;26.36;98815.91;5029687;28;20415;-49
2023/08/13 09:14:35;;;;;;;4.65;2.40;;;;;;;40.96;26.04;98808.69;5054906;28;20445;-49
2023/08/13 09:17:01;;;;;;;9.52;2.97;;;;;;;41.00;26.02;98811.44;5054862;28;20091;-49
2023/08/13 09:19:28;;;;;;;5.10;2.35;;;;;;;40.33;26.77;98812.09;5054887;28;20067;-49
2023/08/13 09:21:59;;;;;;;9.85;2.50;;;;;;;39.50;27.76;98814.16;5054700;28;20032;-49
2023/08/13 09:24:36;;;;;;;10.93;2.88;;;;;;;38.10;30.28;98815.56;5054828;28;20036;-48
2023/08/13 09:27:03;;;;;;;10.20;2.88;;;;;;;37.13;31.12;98820.22;5036690;28;20036;-49
2023/08/13 09:29:30;;;;;;;9.32;3.05;;;;;;;36.77;31.72;98815.09;5054681;28;20394;-48
2023/08/13 09:31:57;;;;;;;12.45;3.35;;;;;;;36.77;31.88;98808.84;5054678;28;20036;-48
2023/08/13 09:34:24;;;;;;;21.80;5.25;;;;;;;36.77;32.04;98804.16;5054615;28;20021;-48
2023/08/13 09:36:52;;;;;;;6.40;2.85;;;;;;;36.89;31.79;98808.59;5054500;28;20108;-48
2023/08/13 09:39:18;;;;;;;11.32;3.45;;;;;;;37.45;31.44;98800.53;5054704;28;20164;-49
2023/08/13 09:41:47;;;;;;;6.15;2.72;;;;;;;38.10;30.49;98797.16;5036561;28;20113;-49
2023/08/13 09:44:14;;;;;;;5.53;2.70;;;;;;;39.25;28.92;98799.59;5054403;28;20027;-48
2023/08/13 09:46:41;;;;;;;8.38;2.55;;;;;;;39.60;28.04;98801.56;5054171;28;20112;-49
2023/08/13 09:49:10;;;;;;;7.32;3.13;;;;;;;39.24;28.53;98801.56;5054234;28;20021;-49
2023/08/13 09:51:39;;;;;;;5.78;2.92;;;;;;;38.71;29.27;98800.22;5054186;28;20029;-49
2023/08/13 09:54:26;;;;;;;15.07;3.35;;;;;;;38.34;30.16;98798.47;5054406;28;20053;-49
2023/08/13 09:56:58;;;;;;;7.30;2.83;;;;;;;38.44;30.20;98799.69;5036272;28;20465;-49
2023/08/13 09:59:26;;;;;;;6.07;2.55;;;;;;;39.36;29.15;98797.59;5054076;28;20103;-49
2023/08/13 10:01:52;;;;;;;9.10;2.80;;;;;;;40.08;27.84;98794.88;5052807;28;20021;-49
2023/08/13 10:04:18;;;;;;;4.88;2.35;;;;;;;40.35;27.23;98789.72;5054038;28;20021;-49
2023/08/13 10:06:46;;;;;;;10.45;2.85;;;;;;;40.89;26.41;98786.72;5035976;28;20033;-49
2023/08/13 10:09:12;;;;;;;6.15;2.60;;;;;;;41.95;25.29;98783.53;5053747;28;20028;-50
2023/08/13 10:11:38;;;;;;;10.15;2.53;;;;;;;43.50;23.64;98782.31;5053640;28;20049;-49
2023/08/13 10:14:04;;;;;;;6.93;2.45;;;;;;;44.30;22.76;98773.38;5054140;28;20032;-49
2023/08/13 10:16:30;;;;;;;7.05;2.42;;;;;;;44.69;21.55;98772.53;5053751;28;20115;-49
2023/08/13 10:19:01;;;;;;;4.22;2.13;;;;;;;44.90;20.89;98768.53;5035911;28;20029;-49
2023/08/13 10:21:38;;;;;;;5.70;2.33;;;;;;;45.44;20.75;98761.72;5035758;28;20079;-50
2023/08/13 10:24:05;;;;;;;3.30;2.13;;;;;;;46.33;19.62;98757.75;5053567;28;20064;-50
2023/08/13 10:26:32;;;;;;;6.07;2.42;;;;;;;47.12;18.51;98755.34;5035579;28;20043;-49
2023/08/13 10:28:58;;;;;;;5.45;2.78;;;;;;;47.31;17.65;98757.13;5053618;28;20028;-49
2023/08/13 10:31:27;;;;;;;7.40;2.20;;;;;;;46.85;17.78;98748.28;5053422;28;20957;-49
2023/08/13 10:34:09;;;;;;;3.45;2.03;;;;;;;46.39;18.07;98748.41;5053673;28;20051;-49
2023/08/13 10:36:48;;;;;;;5.75;2.20;;;;;;;46.63;17.88;98737.03;5053725;28;20033;-49
2023/08/13 10:39:45;;;;;;;6.30;2.40;;;;;;;46.78;17.34;98737.34;5035512;28;20487;-50
2023/08/13 10:42:33;;;;;;;5.68;2.55;;;;;;;46.17;17.95;98742.72;5037062;28;20033;-49
2023/08/13 10:45:07;;;;;;;5.68;2.38;;;;;;;45.65;18.13;98738.22;5053508;28;20061;-50
2023/08/13 10:47:57;;;;;;;5.88;2.00;;;;;;;45.38;18.47;98730.97;5035205;28;20029;-50
2023/08/13 10:50:35;;;;;;;4.78;2.40;;;;;;;44.36;19.04;98721.84;5053169;28;20021;-49
2023/08/13 10:53:04;;;;;;;4.25;2.20;;;;;;;44.48;19.07;98718.44;5053138;28;20021;-50
2023/08/13 10:55:33;;;;;;;5.72;2.53;;;;;;;45.07;18.84;98722.22;5053026;28;20108;-49
2023/08/13 10:57:59;;;;;;;7.82;2.63;;;;;;;45.67;18.40;98719.16;5053063;28;20021;-49
2023/08/13 11:00:26;;;;;;;8.73;3.10;;;;;;;46.02;17.93;98711.81;5035014;28;20052;-49
2023/08/13 11:02:56;;;;;;;4.43;2.00;;;;;;;46.48;17.11;98717.25;5052942;28;20503;-49
2023/08/13 11:05:22;;;;;;;6.32;2.65;;;;;;;46.21;17.27;98715.66;5053042;28;20052;-50
2023/08/13 11:07:51;;;;;;;7.25;2.47;;;;;;;45.81;17.41;98713.19;5034968;28;20025;-49
2023/08/13 11:10:18;;;;;;;6.80;2.92;;;;;;;45.94;16.62;98706.91;5052841;28;20021;-50
2023/08/13 11:12:46;;;;;;;4.35;1.80;;;;;;;45.98;15.95;98704.81;5052213;28;20041;-50
2023/08/13 11:15:11;;;;;;;4.53;2.20;;;;;;;45.99;15.56;98700.81;5052658;28;20048;-50
2023/08/13 11:17:39;;;;;;;6.13;2.33;;;;;;;45.79;15.78;98704.53;5052698;28;20024;-49
2023/08/13 11:20:05;;;;;;;4.15;2.20;;;;;;;45.64;15.96;98697.78;5052594;28;20384;-50
2023/08/13 11:22:32;;;;;;;3.65;2.08;;;;;;;45.19;16.38;98690.25;5052487;28;20104;-50
2023/08/13 11:24:57;;;;;;;9.30;2.55;;;;;;;45.08;16.35;98689.75;5034579;28;20080;-50
2023/08/13 11:27:29;;;;;;;8.23;2.10;;;;;;;45.51;16.23;98691.44;5052333;28;20579;-49
2023/08/13 11:29:55;;;;;;;5.80;2.10;;;;;;;46.16;15.81;98688.44;5052402;28;20083;-50